Terminal Aerodrome Forecast
Issued by NWS Jacksonville, FL

Home | Current Version | Previous Version | Text Only | Print | Product List | Glossary On
Versions: 1 2 3 4 5 6 7 8 9 10 11 12 13 14
229
FTUS42 KJAX 241720
TAFGNV
TAF
KGNV 241720Z 2418/2518 13008KT P6SM SCT060 SCT250
     FM250200 VRB02KT P6SM FEW250
     FM250700 00000KT 5SM BR SKC
     FM251400 11005KT P6SM SKC=

USA.gov is the U.S. government's official web portal to all federal, state and local government web resources and services.